Time;durP1;ratioP1;P1;durP2;ratioP2;P2;SDS_P1;SDS_P2;PMS_P1;PMS_P2;Temp;Humidity;BMP_temperature;BMP_pressure;BME280_temperature;BME280_humidity;BME280_pressure;Samples;Min_cycle;Max_cycle;Signal;HPM_P1;HPM_P2
2020/12/14 00:02:04;;;;;;;4.72;2.47;;;;;;;1.11;93.29;96844.50;4950464;28;20063;-79
2020/12/14 00:04:30;;;;;;;5.35;1.92;;;;;;;1.13;93.14;96849.41;4930201;29;20151;-79
2020/12/14 00:06:55;;;;;;;5.05;2.17;;;;;;;1.17;93.09;96842.16;4966648;28;20035;-79
2020/12/14 00:09:23;;;;;;;3.47;2.00;;;;;;;1.28;92.47;96833.88;4936794;29;20031;-79
2020/12/14 00:11:52;;;;;;;8.10;2.13;;;;;;;1.36;92.03;96827.81;4934921;29;20387;-79
2020/12/14 00:14:17;;;;;;;3.63;1.55;;;;;;;1.29;92.30;96820.88;4952609;28;20086;-78
2020/12/14 00:16:46;;;;;;;3.10;1.77;;;;;;;1.24;92.24;96807.06;4945935;29;20183;-79
2020/12/14 00:19:12;;;;;;;3.75;1.77;;;;;;;1.30;91.66;96808.84;4966589;28;20031;-79
2020/12/14 00:21:37;;;;;;;3.42;1.70;;;;;;;1.32;91.66;96806.88;4934208;29;20038;-79
2020/12/14 00:24:03;;;;;;;5.00;1.77;;;;;;;1.37;90.49;96798.59;4947622;29;20040;-78
2020/12/14 00:26:29;;;;;;;6.18;2.30;;;;;;;1.37;90.70;96801.16;4950537;29;20039;-79
2020/12/14 00:28:54;;;;;;;5.13;1.70;;;;;;;1.47;90.41;96814.38;4934896;29;20035;-79
2020/12/14 00:31:21;;;;;;;4.82;1.55;;;;;;;1.41;91.03;96820.31;4933674;28;20028;-78
2020/12/14 00:33:47;;;;;;;3.75;1.58;;;;;;;1.40;90.50;96831.56;4950880;28;20032;-79
2020/12/14 00:36:16;;;;;;;2.83;1.35;;;;;;;1.33;90.72;96835.88;4933517;29;20039;-79
2020/12/14 00:38:42;;;;;;;2.97;1.73;;;;;;;1.25;91.04;96858.16;4945107;29;20106;-79
2020/12/14 00:41:10;;;;;;;3.58;1.58;;;;;;;1.16;91.30;96863.63;4946333;29;20042;-79
2020/12/14 00:43:36;;;;;;;2.95;1.58;;;;;;;1.07;91.55;96860.47;4967098;28;20109;-79
2020/12/14 00:46:02;;;;;;;3.78;1.98;;;;;;;1.06;91.67;96858.84;4945913;28;20086;-79
2020/12/14 00:48:28;;;;;;;4.80;1.48;;;;;;;0.99;91.40;96853.69;4933930;29;20122;-79
2020/12/14 00:50:53;;;;;;;3.45;1.65;;;;;;;0.97;91.45;96845.41;4917953;29;20183;-78
2020/12/14 00:53:22;;;;;;;2.70;1.20;;;;;;;0.92;91.96;96848.53;4950509;28;20455;-78
2020/12/14 00:55:47;;;;;;;4.35;1.38;;;;;;;1.01;91.75;96845.81;4922409;29;20031;-79
2020/12/14 00:58:13;;;;;;;3.33;1.65;;;;;;;1.03;91.17;96841.28;4950197;28;20039;-78
2020/12/14 01:00:40;;;;;;;5.97;1.27;;;;;;;1.11;91.10;96847.06;4952709;28;20066;-79
2020/12/14 01:03:05;;;;;;;4.22;1.63;;;;;;;1.14;91.02;96840.75;4949705;29;20644;-79
2020/12/14 01:05:31;;;;;;;3.83;1.38;;;;;;;1.22;90.41;96843.16;4948912;28;20049;-79
2020/12/14 01:07:57;;;;;;;4.65;1.65;;;;;;;1.12;90.79;96835.03;4953628;28;20035;-79
2020/12/14 01:10:23;;;;;;;2.90;1.10;;;;;;;1.11;90.13;96826.56;4950671;28;20073;-79
2020/12/14 01:12:48;;;;;;;2.50;1.48;;;;;;;1.13;89.98;96826.34;4944008;29;20039;-78
2020/12/14 01:15:14;;;;;;;3.63;1.50;;;;;;;1.18;90.47;96831.69;4946530;28;20046;-79
2020/12/14 01:17:39;;;;;;;3.83;1.52;;;;;;;1.20;90.06;96834.88;4941391;29;20557;-79
2020/12/14 01:20:05;;;;;;;3.80;1.27;;;;;;;1.16;90.48;96836.22;4964645;28;20148;-79
2020/12/14 01:22:32;;;;;;;3.35;1.35;;;;;;;1.19;90.47;96847.88;4929886;29;20047;-79
2020/12/14 01:24:57;;;;;;;4.57;1.30;;;;;;;1.20;90.25;96850.25;4949363;28;20427;-78
2020/12/14 01:27:23;;;;;;;2.25;1.33;;;;;;;1.19;90.00;96845.31;4951056;28;20045;-79
2020/12/14 01:29:49;;;;;;;3.95;1.25;;;;;;;1.25;90.32;96854.78;4932960;29;20035;-78
2020/12/14 01:32:17;;;;;;;3.08;1.30;;;;;;;1.18;90.10;96841.94;4952266;28;20047;-79
2020/12/14 01:34:43;;;;;;;3.65;1.85;;;;;;;1.29;89.51;96854.22;4949072;28;20035;-79
2020/12/14 01:37:08;;;;;;;4.25;1.10;;;;;;;1.27;89.56;96856.19;4965760;28;20043;-79
2020/12/14 01:39:34;;;;;;;4.35;1.42;;;;;;;1.27;90.02;96856.19;4946898;28;20043;-78
2020/12/14 01:42:00;;;;;;;4.50;1.52;;;;;;;1.25;89.49;96847.91;4949375;29;20529;-78
2020/12/14 01:44:26;;;;;;;2.38;1.30;;;;;;;1.26;89.40;96849.47;4932830;29;20035;-79
2020/12/14 01:46:55;;;;;;;3.25;1.60;;;;;;;1.22;89.81;96847.50;4943422;28;20039;-78
2020/12/14 01:49:24;;;;;;;4.68;2.22;;;;;;;1.24;89.75;96848.09;4965256;28;20118;-78
2020/12/14 01:51:50;;;;;;;3.75;1.27;;;;;;;1.25;89.81;96826.56;4949816;28;20035;-78
2020/12/14 01:54:33;;;;;;;4.32;1.65;;;;;;;1.19;89.71;96828.16;4945393;29;20043;-79
2020/12/14 01:56:59;;;;;;;2.95;1.30;;;;;;;1.24;89.78;96833.47;4928204;29;20070;-79
2020/12/14 01:59:25;;;;;;;3.65;1.50;;;;;;;1.27;89.33;96825.41;4909904;29;20059;-78
2020/12/14 02:01:51;;;;;;;4.32;1.55;;;;;;;1.21;89.74;96820.25;4970961;23;20077;-75
2020/12/14 02:04:17;;;;;;;2.35;1.55;;;;;;;1.18;90.22;96818.84;4950571;28;20050;-77
2020/12/14 02:06:42;;;;;;;3.53;1.63;;;;;;;1.21;89.89;96818.47;4945863;28;20043;-77
2020/12/14 02:09:08;;;;;;;4.63;1.92;;;;;;;1.26;89.87;96817.91;4952848;28;20658;-77
2020/12/14 02:11:35;;;;;;;4.85;1.65;;;;;;;1.33;89.55;96815.38;4953481;28;20186;-75
2020/12/14 02:14:00;;;;;;;3.10;1.65;;;;;;;1.37;89.89;96814.78;4952574;28;20526;-78
2020/12/14 02:16:27;;;;;;;4.03;1.35;;;;;;;1.42;89.22;96814.19;4955720;28;20089;-75
2020/12/14 02:18:53;;;;;;;2.03;1.48;;;;;;;1.49;89.32;96805.53;4971561;28;20449;-78
2020/12/14 02:21:19;;;;;;;4.15;1.40;;;;;;;1.52;89.58;96814.59;4975750;28;20038;-77
2020/12/14 02:23:44;;;;;;;4.28;1.60;;;;;;;1.56;89.62;96820.94;4951559;28;20019;-75
2020/12/14 02:26:11;;;;;;;4.13;1.77;;;;;;;1.63;89.01;96802.97;4952283;28;20397;-78
2020/12/14 02:28:37;;;;;;;3.75;1.33;;;;;;;1.68;89.41;96810.88;4952377;28;20038;-77
2020/12/14 02:31:03;;;;;;;2.67;1.67;;;;;;;1.68;89.31;96801.41;4936414;28;20025;-77
2020/12/14 02:33:29;;;;;;;4.13;1.40;;;;;;;1.80;89.18;96808.50;4952234;28;20031;-77
2020/12/14 02:35:56;;;;;;;5.15;1.80;;;;;;;1.85;89.18;96801.00;4969747;28;20037;-77
2020/12/14 02:38:22;;;;;;;3.40;1.60;;;;;;;1.84;89.80;96794.31;4936142;28;20516;-75
2020/12/14 02:40:48;;;;;;;2.88;1.45;;;;;;;1.93;88.86;96790.53;4951833;28;20359;-75
2020/12/14 02:43:13;;;;;;;3.70;1.73;;;;;;;1.98;88.94;96802.78;4950710;28;20106;-77
2020/12/14 02:45:40;;;;;;;3.08;1.60;;;;;;;2.06;88.57;96800.81;4971357;28;20035;-77
2020/12/14 02:48:06;;;;;;;3.70;1.88;;;;;;;2.12;88.77;96803.56;4955307;28;20051;-77
2020/12/14 02:50:35;;;;;;;3.75;1.77;;;;;;;2.15;88.33;96798.03;4955073;28;20067;-77
2020/12/14 02:53:06;;;;;;;2.55;1.65;;;;;;;2.16;88.34;96797.03;4927300;29;20031;-78
2020/12/14 02:55:31;;;;;;;3.75;1.90;;;;;;;2.13;88.67;96784.59;4936620;29;20027;-77
2020/12/14 02:57:58;;;;;;;3.72;1.80;;;;;;;2.30;87.88;96795.25;4936633;29;20050;-78
2020/12/14 03:00:24;;;;;;;2.65;1.60;;;;;;;2.21;88.13;96776.66;4953697;29;20035;-78
2020/12/14 03:02:49;;;;;;;4.18;1.45;;;;;;;2.24;88.05;96769.38;4954185;28;20063;-78
2020/12/14 03:05:15;;;;;;;4.05;1.67;;;;;;;2.31;87.81;96774.47;4971741;28;20038;-77
2020/12/14 03:07:41;;;;;;;4.22;1.70;;;;;;;2.29;87.60;96770.53;4974608;28;20105;-77
2020/12/14 03:10:07;;;;;;;3.10;1.40;;;;;;;2.27;88.04;96778.44;4958849;28;20118;-77
2020/12/14 03:12:33;;;;;;;2.72;1.52;;;;;;;2.33;87.30;96769.94;4964485;28;20226;-77
2020/12/14 03:15:02;;;;;;;2.80;1.33;;;;;;;2.36;87.41;96784.16;4975242;28;20022;-77
2020/12/14 03:17:28;;;;;;;4.70;1.42;;;;;;;2.42;86.86;96779.00;4985163;28;20034;-77
2020/12/14 03:19:54;;;;;;;3.85;1.50;;;;;;;2.51;86.99;96789.06;4978301;28;20307;-78
2020/12/14 03:22:22;;;;;;;3.70;1.30;;;;;;;2.47;87.23;96787.88;4964461;28;20030;-77
2020/12/14 03:24:48;;;;;;;3.92;1.70;;;;;;;2.41;86.84;96777.41;4975833;28;20039;-78
2020/12/14 03:27:14;;;;;;;3.78;1.48;;;;;;;2.46;87.56;96781.97;4975724;28;20086;-77
2020/12/14 03:29:40;;;;;;;4.47;2.50;;;;;;;2.51;87.41;96778.78;4974592;28;20076;-77
2020/12/14 03:32:05;;;;;;;3.97;2.00;;;;;;;2.49;86.63;96776.41;4975292;28;20034;-77
2020/12/14 03:34:31;;;;;;;3.25;1.50;;;;;;;2.58;86.65;96769.28;4957945;28;20377;-77
2020/12/14 03:36:57;;;;;;;2.92;1.20;;;;;;;2.57;87.25;96777.97;4942139;28;20241;-78
2020/12/14 03:39:26;;;;;;;4.95;1.63;;;;;;;2.62;86.01;96785.84;4958306;28;20118;-77
2020/12/14 03:41:51;;;;;;;3.17;1.30;;;;;;;2.65;86.07;96787.25;4974343;28;20536;-77
2020/12/14 03:44:17;;;;;;;4.32;1.83;;;;;;;2.62;85.98;96781.53;4973704;28;20090;-78
2020/12/14 03:46:43;;;;;;;4.03;1.70;;;;;;;2.67;85.76;96782.69;4974170;28;20478;-78
2020/12/14 03:49:09;;;;;;;5.18;1.80;;;;;;;2.62;86.70;96781.53;4973995;28;20105;-77
2020/12/14 03:51:35;;;;;;;3.78;1.85;;;;;;;2.68;86.05;96784.28;4957761;28;20050;-78
2020/12/14 03:54:01;;;;;;;3.00;1.60;;;;;;;2.67;86.72;96788.59;4974484;28;20049;-77
2020/12/14 03:56:29;;;;;;;5.03;1.63;;;;;;;2.75;85.87;96796.09;4956648;28;20038;-77
2020/12/14 03:58:55;;;;;;;4.32;1.70;;;;;;;2.69;86.32;96785.84;4973345;28;20038;-77
2020/12/14 04:01:21;;;;;;;4.15;1.88;;;;;;;2.70;86.60;96798.50;4957813;28;20143;-78
2020/12/14 04:03:47;;;;;;;3.40;1.65;;;;;;;2.77;86.04;96795.91;4972907;28;20098;-77
2020/12/14 04:06:23;;;;;;;3.80;1.50;;;;;;;2.75;86.96;96785.03;4957593;28;20082;-77
2020/12/14 04:08:48;;;;;;;;;;;;;;;2.76;86.88;96791.72;4974506;28;20118;-77
2020/12/14 04:11:15;;;;;;;4.20;1.45;;;;;;;2.81;86.18;96789.34;4972737;28;19960;-77
2020/12/14 04:13:46;;;;;;;2.50;1.42;;;;;;;2.80;86.40;96780.84;4972915;28;20039;-77
2020/12/14 04:16:12;;;;;;;3.45;1.67;;;;;;;2.85;86.17;96777.69;4924992;28;20027;-77
2020/12/14 04:18:38;;;;;;;2.17;1.35;;;;;;;2.89;85.61;96778.84;4957797;28;20478;-77
2020/12/14 04:21:04;;;;;;;3.50;1.55;;;;;;;2.88;86.15;96784.19;4973184;28;20401;-77
2020/12/14 04:23:30;;;;;;;3.90;1.42;;;;;;;2.84;85.67;96770.16;4940960;28;20054;-78
2020/12/14 04:25:57;;;;;;;4.13;1.83;;;;;;;2.94;85.99;96778.22;4939296;28;20038;-78
2020/12/14 04:28:23;;;;;;;4.03;1.83;;;;;;;3.00;85.33;96773.06;4956818;28;20397;-78
2020/12/14 04:30:49;;;;;;;3.65;1.85;;;;;;;3.10;84.45;96782.91;4956966;28;20045;-77
2020/12/14 04:33:15;;;;;;;6.75;2.15;;;;;;;3.05;85.56;96779.34;4956268;28;20030;-77
2020/12/14 04:35:41;;;;;;;4.55;2.00;;;;;;;3.12;84.70;96788.63;4957330;28;20030;-77
2020/12/14 04:38:06;;;;;;;6.72;1.73;;;;;;;3.08;85.38;96784.88;4971824;28;20035;-78
2020/12/14 04:40:32;;;;;;;3.38;1.70;;;;;;;2.96;85.40;96776.22;4921434;29;20066;-78
2020/12/14 04:42:59;;;;;;;4.30;1.60;;;;;;;3.04;85.61;96785.50;4945838;28;20027;-78
2020/12/14 04:45:29;;;;;;;2.20;1.52;;;;;;;3.06;85.48;96781.72;4957257;28;20030;-77
2020/12/14 04:47:59;;;;;;;5.50;1.98;;;;;;;3.11;85.45;96776.75;4957039;28;20039;-77
2020/12/14 04:50:26;;;;;;;2.65;1.60;;;;;;;3.05;85.27;96766.50;4957623;28;20041;-77
2020/12/14 04:52:52;;;;;;;4.47;1.60;;;;;;;3.08;85.06;96764.28;4956399;28;20446;-77
2020/12/14 04:55:20;;;;;;;2.42;1.60;;;;;;;3.13;84.88;96764.47;4956888;28;20477;-77
2020/12/14 04:57:47;;;;;;;3.90;1.95;;;;;;;3.10;85.46;96767.47;4973582;28;20022;-77
2020/12/14 05:00:14;;;;;;;3.03;1.80;;;;;;;3.16;84.88;96763.28;4955966;28;20118;-77
2020/12/14 05:02:40;;;;;;;3.88;1.63;;;;;;;3.18;84.82;96774.16;4955513;28;20047;-77
2020/12/14 05:05:10;;;;;;;4.55;2.00;;;;;;;3.21;85.04;96778.09;4974061;28;20030;-77
2020/12/14 05:07:43;;;;;;;3.53;1.50;;;;;;;3.18;84.97;96771.56;4972611;28;20066;-77
2020/12/14 05:10:09;;;;;;;3.10;1.50;;;;;;;3.14;84.74;96771.19;4956877;28;20430;-78
2020/12/14 05:12:42;;;;;;;14.00;2.08;;;;;;;3.11;85.42;96769.03;4956675;28;20035;-77
2020/12/14 05:15:34;;;;;;;4.50;1.77;;;;;;;3.19;84.39;96781.66;4956346;28;20039;-77
2020/12/14 05:18:16;;;;;;;3.20;1.70;;;;;;;3.16;84.73;96776.91;4937405;28;20047;-77
2020/12/14 05:20:54;;;;;;;2.97;2.15;;;;;;;3.19;84.15;96773.16;4956062;28;20042;-78
2020/12/14 05:23:20;;;;;;;4.85;1.88;;;;;;;3.20;83.52;96779.88;4972155;28;20343;-77
2020/12/14 05:25:46;;;;;;;4.28;1.65;;;;;;;3.12;84.28;96775.75;4956400;28;20118;-77
2020/12/14 05:28:16;;;;;;;1.90;1.48;;;;;;;3.11;84.59;96783.69;4940446;28;20054;-77
2020/12/14 05:30:44;;;;;;;4.30;1.70;;;;;;;3.12;84.43;96780.91;4953596;28;20146;-78
2020/12/14 05:33:12;;;;;;;4.22;1.80;;;;;;;2.97;84.72;96781.19;4956355;28;20121;-77
2020/12/14 05:35:40;;;;;;;3.13;1.80;;;;;;;2.90;85.58;96783.00;4956237;28;20429;-78
2020/12/14 05:38:14;;;;;;;2.45;1.77;;;;;;;2.90;85.74;96787.34;4956250;28;20034;-78
2020/12/14 05:40:41;;;;;;;4.60;1.80;;;;;;;2.98;85.22;96776.81;4955608;28;20041;-77
2020/12/14 05:43:13;;;;;;;4.13;1.80;;;;;;;2.94;85.03;96771.28;4955445;28;20270;-78
2020/12/14 05:45:40;;;;;;;3.85;1.80;;;;;;;3.06;84.88;96773.22;4956299;28;20064;-78
2020/12/14 05:48:27;;;;;;;4.63;1.63;;;;;;;3.01;84.98;96766.13;4956519;28;20063;-78
2020/12/14 05:50:58;;;;;;;3.67;1.80;;;;;;;3.10;84.78;96777.75;4953209;28;20039;-77
2020/12/14 05:53:37;;;;;;;4.10;2.20;;;;;;;3.08;83.94;96766.88;4955872;28;20031;-78
2020/12/14 05:56:07;;;;;;;3.10;2.00;;;;;;;3.14;83.12;96773.78;4972160;28;20085;-77
2020/12/14 05:58:35;;;;;;;2.15;1.65;;;;;;;3.05;84.07;96780.16;4939651;28;20027;-78
2020/12/14 06:01:03;;;;;;;3.67;1.70;;;;;;;3.12;84.04;96783.47;4955105;28;20038;-78
2020/12/14 06:03:29;;;;;;;3.10;1.88;;;;;;;3.15;83.18;96775.34;4951064;28;20050;-77
2020/12/14 06:06:08;;;;;;;3.00;1.77;;;;;;;3.12;83.95;96775.75;4952038;29;20043;-78
2020/12/14 06:08:46;;;;;;;2.90;2.03;;;;;;;3.05;84.27;96769.88;4952042;29;20059;-77
2020/12/14 06:11:13;;;;;;;2.90;1.90;;;;;;;3.03;83.79;96776.97;4953104;28;20516;-78
2020/12/14 06:13:55;;;;;;;4.15;1.60;;;;;;;3.02;84.76;96772.84;4950852;29;20114;-78
2020/12/14 06:16:29;;;;;;;3.13;1.50;;;;;;;2.99;84.71;96778.41;4952698;28;20047;-77
2020/12/14 06:18:56;;;;;;;4.28;1.75;;;;;;;2.95;84.75;96767.75;4951761;29;20027;-78
2020/12/14 06:21:37;;;;;;;3.70;1.60;;;;;;;2.98;84.55;96779.38;4935438;29;20054;-77
2020/12/14 06:24:07;;;;;;;2.13;1.30;;;;;;;3.00;84.69;96777.41;4940978;28;20811;-78
2020/12/14 06:26:34;;;;;;;1.85;1.70;;;;;;;3.04;84.75;96788.09;4947906;28;20390;-77
2020/12/14 06:29:02;;;;;;;1.88;1.25;;;;;;;3.16;84.04;96786.44;4951960;29;20415;-77
2020/12/14 06:31:36;;;;;;;2.88;1.80;;;;;;;3.16;84.10;96776.91;4951128;29;20382;-78
2020/12/14 06:34:05;;;;;;;2.97;1.40;;;;;;;3.13;84.54;96787.63;4954879;28;20066;-77
2020/12/14 06:36:39;;;;;;;3.95;1.90;;;;;;;3.09;85.14;96791.59;4970813;28;20047;-78
2020/12/14 06:39:28;;;;;;;2.55;1.42;;;;;;;3.10;85.93;96785.47;4955914;29;20121;-77
2020/12/14 06:42:07;;;;;;;4.80;1.63;;;;;;;3.11;85.25;96791.41;4955749;29;20043;-77
2020/12/14 06:44:33;;;;;;;3.08;1.38;;;;;;;3.24;83.93;96793.91;4955537;29;20031;-78
2020/12/14 06:47:13;;;;;;;2.20;1.25;;;;;;;3.28;83.80;96794.28;4939383;28;20102;-78
2020/12/14 06:49:38;;;;;;;3.30;1.50;;;;;;;3.16;84.13;96789.00;4936124;29;20118;-78
2020/12/14 06:52:04;;;;;;;3.65;1.40;;;;;;;3.18;84.90;96805.78;4956831;29;20089;-77
2020/12/14 06:54:47;;;;;;;2.50;1.40;;;;;;;3.17;84.21;96798.28;4957376;28;20034;-78
2020/12/14 06:57:14;;;;;;;2.75;1.40;;;;;;;3.27;83.08;96796.03;4955774;29;20031;-77
2020/12/14 06:59:49;;;;;;;2.33;1.25;;;;;;;3.30;83.15;96800.00;4956034;29;20510;-78
2020/12/14 07:02:14;;;;;;;1.57;1.20;;;;;;;3.26;84.20;96796.28;4974011;28;20070;-78
2020/12/14 07:04:41;;;;;;;3.25;1.65;;;;;;;3.26;83.41;96791.91;4943756;28;20043;-78
2020/12/14 07:07:07;;;;;;;1.80;1.40;;;;;;;3.27;83.03;96810.69;4976608;28;20050;-78
2020/12/14 07:09:35;;;;;;;2.65;1.30;;;;;;;3.28;83.25;96805.34;4960322;28;20253;-78
2020/12/14 07:12:10;;;;;;;1.90;1.10;;;;;;;3.27;82.65;96802.97;4939660;29;20536;-78
2020/12/14 07:14:48;;;;;;;1.88;1.17;;;;;;;3.19;83.50;96817.66;4958116;29;20035;-78
2020/12/14 07:17:25;;;;;;;2.40;1.10;;;;;;;3.13;84.13;96813.34;4957816;29;20039;-78
2020/12/14 07:19:52;;;;;;;2.55;1.23;;;;;;;3.12;83.31;96828.97;4940165;29;20130;-78
2020/12/14 07:22:20;;;;;;;2.20;1.05;;;;;;;3.06;83.86;96828.03;4939514;29;20236;-78
2020/12/14 07:24:51;;;;;;;4.13;1.45;;;;;;;2.98;84.27;96828.25;4940423;29;20287;-78
2020/12/14 07:27:17;;;;;;;1.48;1.10;;;;;;;2.91;85.08;96824.91;4940033;29;20038;-77
2020/12/14 07:29:42;;;;;;;1.83;1.10;;;;;;;2.94;83.80;96820.16;4956837;29;20043;-78
2020/12/14 07:32:08;;;;;;;2.25;1.17;;;;;;;2.92;84.38;96823.94;4924090;29;20122;-77
2020/12/14 07:34:34;;;;;;;3.55;1.20;;;;;;;2.85;84.08;96834.25;4957172;29;20046;-77
2020/12/14 07:37:00;;;;;;;2.53;1.23;;;;;;;2.80;84.42;96816.84;4939602;29;20127;-78
2020/12/14 07:39:26;;;;;;;4.45;1.10;;;;;;;2.85;84.18;96823.94;4940011;29;20041;-77
2020/12/14 07:41:53;;;;;;;2.30;1.10;;;;;;;2.78;84.27;96823.97;4956352;29;20038;-78
2020/12/14 07:44:18;;;;;;;3.58;1.10;;;;;;;2.76;84.55;96823.41;4955991;28;20039;-78
2020/12/14 07:46:44;;;;;;;1.33;0.95;;;;;;;2.70;84.60;96833.69;4926301;29;20349;-78
2020/12/14 07:49:13;;;;;;;1.42;0.95;;;;;;;2.70;84.39;96839.63;4940116;29;20086;-77
2020/12/14 07:51:41;;;;;;;3.17;1.15;;;;;;;2.85;84.00;96841.16;4922975;29;20102;-77
2020/12/14 07:54:15;;;;;;;2.75;1.27;;;;;;;2.91;84.29;96840.34;4939628;29;20039;-78
2020/12/14 07:56:49;;;;;;;1.50;0.80;;;;;;;2.91;84.18;96843.69;4939504;29;20027;-77
2020/12/14 07:59:26;;;;;;;2.08;1.38;;;;;;;2.92;83.73;96837.56;4939662;29;20056;-77
2020/12/14 08:01:52;;;;;;;1.42;0.80;;;;;;;2.90;83.88;96831.06;4940118;28;20039;-78
2020/12/14 08:04:27;;;;;;;2.70;1.13;;;;;;;3.04;83.59;96844.66;4976104;28;20372;-77
2020/12/14 08:06:55;;;;;;;1.52;0.88;;;;;;;3.00;83.30;96836.56;4957631;28;20034;-78
2020/12/14 08:09:44;;;;;;;3.08;1.10;;;;;;;2.98;83.43;96846.25;4958429;28;20082;-78
2020/12/14 08:12:11;;;;;;;2.70;1.20;;;;;;;3.06;83.14;96842.66;4974114;28;20042;-78
2020/12/14 08:14:37;;;;;;;1.75;1.00;;;;;;;3.10;83.22;96847.22;4974288;28;20038;-78
2020/12/14 08:17:03;;;;;;;4.63;1.48;;;;;;;3.14;82.81;96840.66;4973928;28;20027;-77
2020/12/14 08:19:35;;;;;;;1.23;0.90;;;;;;;3.30;82.37;96856.59;4958715;28;20398;-78
2020/12/14 08:22:06;;;;;;;3.03;1.30;;;;;;;3.27;82.61;96849.28;4956964;28;20111;-78
2020/12/14 08:24:34;;;;;;;2.45;1.25;;;;;;;3.34;82.32;96860.34;4975250;28;20031;-78
2020/12/14 08:27:05;;;;;;;1.77;0.90;;;;;;;3.29;82.90;96860.16;4958718;28;20031;-78
2020/12/14 08:29:32;;;;;;;1.42;0.93;;;;;;;3.29;82.26;96855.84;4942215;28;20027;-78
2020/12/14 08:32:01;;;;;;;2.67;0.93;;;;;;;3.34;82.60;96860.34;4957839;28;20038;-77
2020/12/14 08:34:34;;;;;;;1.73;1.15;;;;;;;3.30;82.97;96846.31;4959262;28;20039;-78
2020/12/14 08:37:02;;;;;;;1.73;0.90;;;;;;;3.41;83.19;96855.16;4957928;28;20027;-78
2020/12/14 08:39:28;;;;;;;1.55;1.00;;;;;;;3.52;82.30;96854.53;4958280;28;20042;-78
2020/12/14 08:42:04;;;;;;;1.63;1.13;;;;;;;3.73;81.82;96861.13;4956988;28;20035;-78
2020/12/14 08:44:30;;;;;;;3.35;1.33;;;;;;;3.72;81.42;96849.25;4942707;28;20113;-78
2020/12/14 08:46:56;;;;;;;1.73;1.35;;;;;;;3.74;81.10;96850.63;4941424;28;20213;-78
2020/12/14 08:49:22;;;;;;;2.95;0.73;;;;;;;3.78;81.16;96856.13;4941782;28;20078;-78
2020/12/14 08:51:48;;;;;;;1.77;1.25;;;;;;;3.89;80.99;96859.81;4958626;28;20035;-78
2020/12/14 08:54:17;;;;;;;2.35;0.88;;;;;;;3.83;80.59;96858.88;4976557;28;20034;-78
2020/12/14 08:56:43;;;;;;;2.55;1.30;;;;;;;3.82;80.10;96865.03;4958712;28;20034;-78
2020/12/14 08:59:20;;;;;;;1.42;1.00;;;;;;;3.88;80.00;96851.31;4959103;28;20041;-77
2020/12/14 09:02:04;;;;;;;1.85;0.80;;;;;;;4.01;79.96;96865.09;4956707;28;20027;-77
2020/12/14 09:04:31;;;;;;;1.35;0.95;;;;;;;4.05;78.03;96861.09;4939759;29;20039;-77
2020/12/14 09:06:58;;;;;;;2.75;1.20;;;;;;;4.05;79.40;96871.41;4939202;29;20031;-77
2020/12/14 09:09:35;;;;;;;0.98;0.73;;;;;;;4.10;81.05;96869.00;4939089;29;20505;-78
2020/12/14 09:12:02;;;;;;;2.50;1.10;;;;;;;4.12;80.17;96872.16;4939225;29;20039;-78
2020/12/14 09:14:30;;;;;;;1.58;0.85;;;;;;;4.11;80.95;96865.41;4939348;29;20031;-78
2020/12/14 09:17:02;;;;;;;1.25;0.90;;;;;;;4.14;79.94;96865.00;4939048;29;20023;-77
2020/12/14 09:19:29;;;;;;;1.88;1.20;;;;;;;4.17;80.29;96864.56;4939560;29;20513;-77
2020/12/14 09:21:56;;;;;;;1.73;1.30;;;;;;;4.20;80.18;96861.59;4938347;28;20064;-77
2020/12/14 09:24:30;;;;;;;1.88;1.00;;;;;;;4.24;80.12;96859.38;4936029;29;20071;-78
2020/12/14 09:27:09;;;;;;;2.88;0.98;;;;;;;4.36;80.26;96862.81;4938511;29;20651;-77
2020/12/14 09:29:40;;;;;;;1.50;0.90;;;;;;;4.52;79.00;96855.53;4955280;29;20077;-77
2020/12/14 09:32:07;;;;;;;1.08;0.95;;;;;;;4.61;76.72;96859.41;4938793;29;20027;-78
2020/12/14 09:34:33;;;;;;;1.33;0.82;;;;;;;4.64;77.70;96864.16;4938886;29;20062;-78
2020/12/14 09:37:00;;;;;;;0.70;0.50;;;;;;;4.62;78.75;96863.59;4954687;29;20039;-78
2020/12/14 09:39:27;;;;;;;1.65;0.60;;;;;;;4.69;78.10;96862.53;4933951;29;20064;-78
2020/12/14 09:41:55;;;;;;;4.93;0.80;;;;;;;4.72;77.79;96868.25;4953113;29;20118;-78
2020/12/14 09:44:21;;;;;;;1.67;0.80;;;;;;;4.80;76.81;96868.75;4926828;28;20023;-78
2020/12/14 09:46:47;;;;;;;1.67;0.70;;;;;;;4.99;76.25;96872.13;4927301;29;20019;-77
2020/12/14 09:49:13;;;;;;;1.27;0.80;;;;;;;5.06;76.24;96874.63;4937364;29;20027;-77
2020/12/14 09:51:39;;;;;;;1.08;0.75;;;;;;;5.10;75.26;96874.97;4924508;29;20036;-78
2020/12/14 09:54:06;;;;;;;1.20;0.60;;;;;;;5.25;75.49;96883.16;4936483;29;20422;-78
2020/12/14 09:56:33;;;;;;;3.47;0.80;;;;;;;5.32;75.84;96875.31;4934538;29;20518;-78
2020/12/14 09:59:00;;;;;;;2.03;0.45;;;;;;;5.47;74.68;96872.34;4934882;29;20039;-78
2020/12/14 10:01:29;;;;;;;2.22;1.08;;;;;;;5.54;74.71;96873.84;4937864;29;20027;-78
2020/12/14 10:03:56;;;;;;;1.88;0.90;;;;;;;5.68;73.72;96884.00;4939293;28;20043;-78
2020/12/14 10:06:22;;;;;;;2.63;0.93;;;;;;;5.76;75.52;96886.28;4935486;29;20486;-77
2020/12/14 10:08:50;;;;;;;1.00;0.80;;;;;;;5.86;72.01;96891.69;4952022;29;20027;-78
2020/12/14 10:11:21;;;;;;;2.45;0.80;;;;;;;5.82;74.43;96880.22;4935087;29;20034;-78
2020/12/14 10:13:47;;;;;;;1.65;0.75;;;;;;;5.87;73.64;96882.91;4935022;28;20078;-77
2020/12/14 10:16:13;;;;;;;1.80;0.70;;;;;;;5.80;73.47;96885.59;4951965;28;20039;-78
2020/12/14 10:18:39;;;;;;;1.00;0.60;;;;;;;5.80;73.65;96877.84;4936209;29;20158;-78
2020/12/14 10:21:06;;;;;;;1.05;0.40;;;;;;;5.82;74.72;96883.56;4935618;29;20037;-78
2020/12/14 10:23:32;;;;;;;0.80;0.68;;;;;;;5.83;75.25;96881.78;4937055;29;20022;-78
2020/12/14 10:25:58;;;;;;;1.77;0.70;;;;;;;5.87;75.48;96872.59;4934691;29;20402;-78
2020/12/14 10:28:25;;;;;;;2.58;0.70;;;;;;;5.94;75.27;96880.25;4933491;28;20063;-77
2020/12/14 10:30:51;;;;;;;1.33;0.50;;;;;;;6.18;73.49;96878.50;4935368;29;20046;-77
2020/12/14 10:33:18;;;;;;;2.78;1.00;;;;;;;6.19;72.52;96878.28;4935365;29;20031;-77
2020/12/14 10:35:44;;;;;;;2.42;0.88;;;;;;;6.17;73.68;96862.22;4935280;29;20134;-77
2020/12/14 10:38:11;;;;;;;1.23;0.80;;;;;;;6.29;72.03;96875.16;4936031;29;20027;-78
2020/12/14 10:40:37;;;;;;;1.92;0.80;;;;;;;6.36;73.86;96868.06;4953636;29;20063;-77
2020/12/14 10:43:03;;;;;;;0.70;0.60;;;;;;;6.42;74.24;96865.59;4935745;29;20131;-78
2020/12/14 10:45:28;;;;;;;1.95;0.70;;;;;;;6.36;73.30;96849.19;4932650;29;20448;-79
2020/12/14 10:47:54;;;;;;;1.60;0.38;;;;;;;6.64;73.71;96865.81;4927568;29;20035;-77
2020/12/14 10:50:20;;;;;;;1.73;0.98;;;;;;;6.67;69.77;96868.75;4918856;29;20064;-78
2020/12/14 10:52:46;;;;;;;1.80;0.60;;;;;;;6.57;72.11;96856.38;4932184;28;20034;-78
2020/12/14 10:55:12;;;;;;;1.42;0.60;;;;;;;6.67;71.54;96849.84;4956808;28;20118;-78
2020/12/14 10:57:38;;;;;;;1.10;0.50;;;;;;;6.76;71.63;96866.59;4935574;29;20043;-78
2020/12/14 11:00:09;;;;;;;1.33;0.70;;;;;;;6.74;71.48;96866.03;4935639;29;20039;-78
2020/12/14 11:02:41;;;;;;;1.83;0.60;;;;;;;6.71;72.05;96859.50;4959403;28;20051;-77
2020/12/14 11:05:09;;;;;;;1.65;0.60;;;;;;;6.65;71.80;96854.44;4938187;28;20031;-78
2020/12/14 11:07:35;;;;;;;1.05;0.47;;;;;;;6.65;72.36;96867.38;4924631;28;20038;-77
2020/12/14 11:10:09;;;;;;;1.08;0.60;;;;;;;6.72;71.53;96862.91;4936867;29;20390;-78
2020/12/14 11:12:35;;;;;;;0.90;0.65;;;;;;;6.70;71.87;96855.38;4934983;29;20118;-78
2020/12/14 11:15:02;;;;;;;0.95;0.57;;;;;;;6.86;72.23;96866.81;4936664;28;20034;-77
2020/12/14 11:17:29;;;;;;;0.80;0.60;;;;;;;6.93;70.75;96859.69;4954235;28;20027;-77
2020/12/14 11:19:55;;;;;;;1.20;0.75;;;;;;;6.88;71.86;96857.00;4972801;28;20101;-78
2020/12/14 11:22:21;;;;;;;1.80;0.73;;;;;;;6.93;73.13;96849.34;4958068;28;20038;-77
2020/12/14 11:24:47;;;;;;;1.42;0.60;;;;;;;6.99;71.57;96847.66;4962223;28;20035;-77
2020/12/14 11:27:15;;;;;;;2.53;0.50;;;;;;;7.04;71.35;96849.53;4951514;29;20031;-78
2020/12/14 11:29:41;;;;;;;1.00;0.40;;;;;;;7.05;70.43;96843.38;4963092;28;20072;-78
2020/12/14 11:32:06;;;;;;;2.15;0.80;;;;;;;7.03;70.92;96842.81;4974963;28;20026;-78
2020/12/14 11:34:32;;;;;;;2.53;0.80;;;;;;;7.11;69.91;96848.41;4957878;28;20043;-78
2020/12/14 11:37:00;;;;;;;0.95;0.60;;;;;;;7.19;70.29;96836.91;4975382;28;20038;-78
2020/12/14 11:39:26;;;;;;;1.10;0.57;;;;;;;7.15;71.11;96840.97;4941718;28;20033;-78
2020/12/14 11:41:52;;;;;;;0.95;0.70;;;;;;;7.12;71.80;96837.03;4957922;28;20038;-78
2020/12/14 11:44:18;;;;;;;1.13;0.60;;;;;;;7.17;72.15;96820.81;4963128;28;20534;-78
2020/12/14 11:46:48;;;;;;;1.73;0.50;;;;;;;7.07;71.14;96831.75;4946040;29;20130;-77